Time;durP1;ratioP1;P1;durP2;ratioP2;P2;SDS_P1;SDS_P2;PMS_P1;PMS_P2;Temp;Humidity;BMP_temperature;BMP_pressure;BME280_temperature;BME280_humidity;BME280_pressure;Samples;Min_cycle;Max_cycle;Signal;HPM_P1;HPM_P2
2022/04/07 00:07:13;;;;;;;;;23.00;23.00;;;;;6.11;100.00;100277.87;3721585;37;21260;-47
2022/04/07 00:12:25;;;;;;;;;22.50;20.50;;;;;6.11;100.00;100263.59;3721266;37;21210;-46
2022/04/07 00:14:56;;;;;;;;;25.50;22.75;;;;;6.07;100.00;100271.13;3720728;38;21106;-48
2022/04/07 00:17:30;;;;;;;;;23.25;21.75;;;;;6.04;100.00;100259.88;3721710;37;21261;-47
2022/04/07 00:22:39;;;;;;;;;24.75;23.00;;;;;6.11;100.00;100266.28;3721321;38;21257;-48
2022/04/07 00:32:42;;;;;;;;;17.75;16.50;;;;;6.08;100.00;100250.50;3721243;38;21212;-47
2022/04/07 00:37:43;;;;;;;;;23.00;21.50;;;;;6.18;100.00;100264.63;3721649;37;21246;-47
2022/04/07 00:42:52;;;;;;;;;22.75;22.00;;;;;6.14;100.00;100245.31;3721470;38;21494;-48
2022/04/07 00:45:26;;;;;;;;;21.75;21.00;;;;;6.15;100.00;100247.00;3721571;37;21231;-48
2022/04/07 00:52:58;;;;;;;;;26.25;20.00;;;;;6.20;100.00;100243.81;3721520;37;21206;-49
2022/04/07 00:55:24;;;;;;;;;24.50;22.50;;;;;6.12;100.00;100255.38;3721040;38;21265;-47
2022/04/07 01:02:57;;;;;;;;;21.75;20.75;;;;;6.06;100.00;100237.22;3721806;37;21196;-48
2022/04/07 01:05:27;;;;;;;;;24.25;24.25;;;;;6.07;100.00;100238.06;3721879;37;21276;-46
2022/04/07 01:10:25;;;;;;;;;20.50;18.50;;;;;6.20;100.00;100230.37;3721915;37;21222;-48
2022/04/07 01:20:41;;;;;;;;;21.00;20.50;;;;;6.30;100.00;100207.72;3720819;37;21129;-48
2022/04/07 01:23:19;;;;;;;;;19.00;19.00;;;;;6.20;100.00;100209.72;3721378;38;21141;-48
2022/04/07 01:25:53;;;;;;;;;19.00;19.00;;;;;6.01;100.00;100195.72;3721395;37;21158;-48
2022/04/07 01:28:25;;;;;;;;;18.25;17.75;;;;;6.11;100.00;100208.03;3721612;38;21094;-47
2022/04/07 01:30:56;;;;;;;;;20.50;19.25;;;;;6.04;100.00;100207.00;3721593;37;21117;-47
2022/04/07 01:33:29;;;;;;;;;19.00;17.75;;;;;6.02;100.00;100206.31;3723058;37;21170;-49
2022/04/07 01:48:29;;;;;;;;;20.25;18.25;;;;;5.88;100.00;100201.50;3721825;37;21067;-48
2022/04/07 01:50:57;;;;;;;;;11.25;11.25;;;;;5.84;100.00;100202.84;3721865;37;21163;-49
2022/04/07 01:53:25;;;;;;;;;21.00;18.25;;;;;5.76;100.00;100195.59;3721729;38;21060;-47
2022/04/07 02:06:12;;;;;;;;;22.75;21.50;;;;;5.69;100.00;100180.31;3721178;38;21029;-44
2022/04/07 02:08:46;;;;;;;;;26.75;23.75;;;;;5.75;100.00;100182.31;3721513;37;21056;-44
2022/04/07 02:11:16;;;;;;;;;28.25;28.00;;;;;5.50;100.00;100154.56;3721446;37;21126;-46
2022/04/07 02:13:43;;;;;;;;;27.50;22.75;;;;;5.65;100.00;100182.47;3721398;37;21161;-48
2022/04/07 02:18:42;;;;;;;;;19.75;18.50;;;;;5.57;100.00;100171.72;3721443;38;20966;-50
2022/04/07 02:21:15;;;;;;;;;20.25;19.75;;;;;5.59;100.00;100178.59;3721763;37;21209;-49
2022/04/07 02:28:48;;;;;;;;;22.00;18.50;;;;;5.55;100.00;100155.75;3721928;37;21366;-49
2022/04/07 02:31:22;;;;;;;;;19.50;19.50;;;;;5.52;100.00;100131.09;3721768;37;21142;-49
2022/04/07 02:33:57;;;;;;;;;23.75;22.25;;;;;5.83;100.00;100166.25;3721706;38;21110;-47
2022/04/07 02:36:27;;;;;;;;;19.50;18.75;;;;;5.90;100.00;100159.25;3721790;37;21019;-46
2022/04/07 02:46:34;;;;;;;;;18.50;18.00;;;;;6.10;100.00;100157.97;3721704;37;21009;-46
2022/04/07 02:49:00;;;;;;;;;21.00;20.25;;;;;6.11;100.00;100156.13;3721815;38;21070;-48
2022/04/07 02:51:34;;;;;;;;;21.50;21.50;;;;;6.27;100.00;100153.44;3721545;37;21058;-47
2022/04/07 03:04:08;;;;;;;;;26.25;24.75;;;;;6.52;100.00;100135.50;3721069;38;20944;-48
2022/04/07 03:06:46;;;;;;;;;21.50;21.00;;;;;6.52;100.00;100140.88;3721562;38;21032;-47
2022/04/07 03:09:23;;;;;;;;;21.75;20.75;;;;;6.49;100.00;100130.47;3721328;38;20908;-47
2022/04/07 03:14:18;;;;;;;;;27.25;24.75;;;;;6.55;100.00;100130.62;3720746;38;20960;-47
2022/04/07 03:16:48;;;;;;;;;25.75;25.75;;;;;6.55;100.00;100132.47;3721189;37;21058;-47
2022/04/07 03:19:16;;;;;;;;;22.75;21.00;;;;;6.36;100.00;100100.53;3720690;38;21363;-47
2022/04/07 03:21:44;;;;;;;;;25.50;24.75;;;;;6.55;100.00;100135.16;3721745;38;21124;-49
2022/04/07 03:24:18;;;;;;;;;25.25;25.25;;;;;6.50;100.00;100129.44;3721572;38;21012;-49
2022/04/07 03:26:51;;;;;;;;;31.75;30.25;;;;;6.34;100.00;100135.66;3721776;37;21032;-49
2022/04/07 03:32:04;;;;;;;;;33.25;32.00;;;;;6.19;100.00;100122.06;3721988;37;21011;-47
2022/04/07 03:34:36;;;;;;;;;29.75;29.25;;;;;6.24;100.00;100141.19;3721525;37;21196;-48
2022/04/07 03:37:04;;;;;;;;;26.75;26.25;;;;;6.32;100.00;100122.37;3720971;38;21050;-48
2022/04/07 03:47:12;;;;;;;;;22.50;22.50;;;;;6.58;100.00;100107.94;3721703;37;20902;-48
2022/04/07 03:49:43;;;;;;;;;25.00;23.75;;;;;6.71;100.00;100115.50;3721144;37;20955;-48
2022/04/07 03:52:17;;;;;;;;;27.50;27.25;;;;;6.75;100.00;100117.69;3721808;37;21169;-47
2022/04/07 03:59:50;;;;;;;;;29.00;25.50;;;;;6.81;100.00;100102.69;3721581;37;20943;-50
2022/04/07 04:02:20;;;;;;;;;24.75;23.00;;;;;6.69;100.00;100072.66;3722024;37;21294;-50
2022/04/07 04:04:51;;;;;;;;;21.50;20.75;;;;;6.88;100.00;100098.31;3721774;38;21162;-49
2022/04/07 04:07:18;;;;;;;;;24.50;22.00;;;;;6.85;100.00;100098.66;3721733;37;21007;-50
2022/04/07 04:09:53;;;;;;;;;21.75;21.00;;;;;6.93;100.00;100102.16;3721787;38;20881;-48
2022/04/07 04:12:21;;;;;;;;;23.00;23.00;;;;;6.99;100.00;100106.03;3721302;38;20795;-49
2022/04/07 04:14:48;;;;;;;;;19.50;19.50;;;;;7.00;100.00;100112.25;3721161;38;20895;-46
2022/04/07 04:17:44;;;;;;;;;21.50;19.75;;;;;7.07;100.00;100097.09;3722282;37;21176;-45
2022/04/07 04:20:11;;;;;;;;;23.50;23.50;;;;;7.15;100.00;100105.16;3722404;38;20974;-48
2022/04/07 04:22:38;;;;;;;;;20.50;20.50;;;;;7.17;100.00;100103.12;3721639;37;20825;-50
2022/04/07 04:25:09;;;;;;;;;26.25;26.00;;;;;7.21;100.00;100101.78;3721778;37;20881;-48
2022/04/07 04:35:26;;;;;;;;;29.25;28.75;;;;;7.54;100.00;100111.37;3722192;38;21002;-48
2022/04/07 04:38:01;;;;;;;;;20.25;18.50;;;;;7.70;100.00;100102.41;3721645;38;20922;-49
2022/04/07 04:40:39;;;;;;;;;32.25;31.00;;;;;7.75;100.00;100099.19;3721717;37;20905;-49
2022/04/07 04:43:10;;;;;;;;;34.75;32.50;;;;;7.85;100.00;100102.47;3721581;37;20973;-48
2022/04/07 04:45:44;;;;;;;;;32.25;31.50;;;;;7.97;100.00;100106.44;3722182;38;20944;-49
2022/04/07 04:48:11;;;;;;;;;27.25;26.00;;;;;8.03;100.00;100108.41;3721855;38;20869;-50
2022/04/07 05:05:40;;;;;;;;;24.50;22.50;;;;;8.64;100.00;100093.16;3721493;37;20802;-51
2022/04/07 05:15:49;;;;;;;;;26.25;25.25;;;;;9.00;100.00;100070.84;3721913;37;20831;-47
2022/04/07 05:18:24;;;;;;;;;29.00;27.75;;;;;9.08;100.00;100068.91;3721508;37;20789;-49
2022/04/07 05:23:27;;;;;;;;;24.00;22.00;;;;;9.16;100.00;100039.12;3721238;37;20864;-47
2022/04/07 05:25:54;;;;;;;;;29.50;28.25;;;;;9.43;100.00;100058.34;3721851;37;20803;-49
2022/04/07 05:28:22;;;;;;;;;27.75;26.25;;;;;9.52;100.00;100052.66;3720995;37;21074;-47
2022/04/07 05:30:50;;;;;;;;;35.25;32.00;;;;;9.61;100.00;100053.38;3721799;37;20753;-48
2022/04/07 05:33:17;;;;;;;;;43.00;37.00;;;;;9.75;100.00;100054.37;3721661;38;20967;-48
2022/04/07 05:35:45;;;;;;;;;36.75;33.75;;;;;9.82;100.00;100048.03;3721676;37;20939;-48
2022/04/07 05:38:20;;;;;;;;;22.25;22.25;;;;;9.90;100.00;100039.75;3721780;38;20970;-49
2022/04/07 05:43:26;;;;;;;;;29.00;27.25;;;;;10.17;100.00;100045.44;3721596;38;20669;-48
2022/04/07 05:45:56;;;;;;;;;29.75;28.50;;;;;10.23;100.00;100042.00;3721517;38;20988;-47
2022/04/07 05:56:01;;;;;;;;;41.25;35.25;;;;;10.75;100.00;100033.47;3721461;37;20790;-48
2022/04/07 06:09:02;;;;;;;;;26.25;24.75;;;;;11.54;92.90;100025.75;3721712;38;20724;-48
2022/04/07 06:11:40;;;;;;;;;29.00;29.00;;;;;11.72;91.82;100011.62;3721570;37;20702;-47
2022/04/07 06:14:18;;;;;;;;;26.50;25.25;;;;;11.97;88.60;100025.47;3721782;38;20803;-48
2022/04/07 06:16:53;;;;;;;;;20.50;19.75;;;;;11.91;84.64;100004.62;3721535;38;20684;-49
2022/04/07 06:19:27;;;;;;;;;21.50;20.50;;;;;12.09;83.38;100012.97;3721508;37;20883;-47
2022/04/07 06:21:57;;;;;;;;;22.50;21.00;;;;;12.08;82.34;99981.47;3721484;38;20716;-47
2022/04/07 06:24:31;;;;;;;;;21.75;21.00;;;;;12.35;80.58;100000.47;3721626;37;20789;-48
2022/04/07 06:27:01;;;;;;;;;23.50;22.00;;;;;12.36;79.76;99999.44;3721384;37;20727;-48
2022/04/07 06:29:36;;;;;;;;;22.50;22.50;;;;;12.37;78.38;100001.94;3721429;37;20933;-49
2022/04/07 06:32:07;;;;;;;;;20.50;20.50;;;;;12.28;78.71;99967.91;3721440;37;20780;-47
2022/04/07 06:37:09;;;;;;;;;22.50;21.25;;;;;12.59;77.44;99983.53;3721658;38;20929;-48
2022/04/07 06:39:43;;;;;;;;;29.75;28.75;;;;;12.71;77.39;99973.69;3720958;38;20658;-48
2022/04/07 06:42:14;;;;;;;;;23.25;22.50;;;;;12.86;75.44;99976.19;3720918;37;20732;-46
2022/04/07 06:55:12;;;;;;;;;20.50;19.75;;;;;13.54;69.42;99963.78;3721175;37;20535;-46
2022/04/07 06:57:56;;;;;;;;;21.50;20.75;;;;;13.54;66.65;99961.06;3721274;37;20711;-47
2022/04/07 07:03:00;;;;;;;;;19.75;19.75;;;;;13.81;65.69;99928.28;3721289;37;20910;-46
2022/04/07 07:05:31;;;;;;;;;19.75;19.50;;;;;14.02;64.27;99944.25;3721256;38;20642;-47
2022/04/07 07:28:46;;;;;;;;;19.50;19.50;;;;;14.65;57.13;99926.91;3721474;37;20591;-48
2022/04/07 07:31:17;;;;;;;;;18.50;18.50;;;;;14.79;58.03;99931.16;3720709;38;20665;-48
2022/04/07 07:33:44;;;;;;;;;19.50;18.25;;;;;14.65;58.16;99927.75;3721790;38;20575;-50
2022/04/07 07:36:15;;;;;;;;;18.00;17.25;;;;;14.91;58.24;99937.53;3721437;37;20725;-48
2022/04/07 07:38:42;;;;;;;;;14.50;14.25;;;;;15.07;57.14;99931.47;3721396;37;20659;-48
2022/04/07 07:41:09;;;;;;;;;17.25;17.25;;;;;15.19;55.99;99935.09;3721232;38;20698;-47
2022/04/07 07:43:39;;;;;;;;;17.50;17.50;;;;;15.23;55.97;99930.00;3721060;38;20913;-48
2022/04/07 07:46:07;;;;;;;;;16.00;16.00;;;;;15.23;55.11;99933.56;3721598;38;20982;-48
2022/04/07 07:48:35;;;;;;;;;17.25;16.00;;;;;15.27;55.16;99938.56;3721791;37;20593;-48
2022/04/07 07:51:03;;;;;;;;;16.25;15.75;;;;;15.38;54.96;99945.97;3720904;37;20639;-47
2022/04/07 07:53:31;;;;;;;;;15.50;15.50;;;;;15.45;55.25;99944.81;3721643;37;20561;-47
2022/04/07 08:03:52;;;;;;;;;17.75;17.25;;;;;15.77;54.28;99948.16;3721605;38;20658;-48
2022/04/07 08:09:04;;;;;;;;;19.75;18.75;;;;;15.95;53.08;99928.16;3721887;38;20510;-47
2022/04/07 08:11:41;;;;;;;;;16.75;16.75;;;;;15.94;52.85;99907.41;3721726;38;20511;-50
2022/04/07 08:14:16;;;;;;;;;21.75;20.25;;;;;16.31;51.40;99912.66;3721505;38;20592;-49
2022/04/07 08:16:53;;;;;;;;;17.75;17.75;;;;;16.51;50.66;99911.22;3721596;37;20594;-49
2022/04/07 08:29:37;;;;;;;;;18.75;18.00;;;;;16.81;48.36;99902.91;3721619;37;20519;-50
2022/04/07 08:39:37;;;;;;;;;17.75;17.25;;;;;16.87;48.30;99879.25;3721522;38;20545;-49
2022/04/07 08:42:08;;;;;;;;;19.75;19.75;;;;;17.07;48.04;99900.72;3721980;37;20840;-49
2022/04/07 08:44:38;;;;;;;;;20.00;20.00;;;;;17.01;47.90;99868.88;3721666;38;20426;-49
2022/04/07 08:47:10;;;;;;;;;16.75;16.75;;;;;17.35;47.34;99900.72;3721456;38;20429;-49
2022/04/07 08:59:50;;;;;;;;;18.50;18.50;;;;;17.64;45.64;99865.13;3721079;37;20504;-51
2022/04/07 09:02:17;;;;;;;;;22.50;21.25;;;;;17.64;45.72;99876.09;3721154;37;20547;-49
2022/04/07 09:04:48;;;;;;;;;19.25;18.75;;;;;17.57;44.98;99868.03;3721804;38;20728;-49
2022/04/07 09:07:20;;;;;;;;;25.50;25.50;;;;;17.73;45.17;99860.94;3721780;38;20599;-48
2022/04/07 09:15:07;;;;;;;;;17.00;16.00;;;;;17.83;44.95;99831.00;3721674;37;20619;-49
2022/04/07 09:17:55;;;;;;;;;11.75;11.75;;;;;18.16;43.92;99830.16;3721075;38;20605;-49
2022/04/07 09:20:26;;;;;;;;;18.25;18.25;;;;;18.15;43.53;99823.84;3721612;38;20716;-48
2022/04/07 09:28:00;;;;;;;;;18.50;18.00;;;;;17.69;45.11;99805.84;3721931;38;20467;-48
2022/04/07 09:30:31;;;;;;;;;22.25;21.25;;;;;17.82;44.99;99791.84;3721950;37;20476;-48
2022/04/07 09:33:04;;;;;;;;;17.25;17.25;;;;;17.73;44.83;99781.56;3721548;38;20502;-48
2022/04/07 09:40:53;;;;;;;;;19.25;19.25;;;;;18.58;43.03;99783.88;3721818;37;20517;-49
2022/04/07 09:43:21;;;;;;;;;15.00;15.00;;;;;18.67;42.92;99774.16;3721969;37;20472;-47
2022/04/07 09:45:49;;;;;;;;;19.75;17.75;;;;;18.88;41.69;99763.41;3721724;37;20446;-47
2022/04/07 09:48:20;;;;;;;;;17.00;17.00;;;;;19.02;41.33;99753.69;3721696;38;20397;-47
2022/04/07 09:51:07;;;;;;;;;16.50;16.50;;;;;18.87;41.36;99745.31;3721265;37;20510;-46
2022/04/07 09:53:40;;;;;;;;;18.75;18.00;;;;;19.14;40.78;99746.16;3720707;37;20471;-47
2022/04/07 09:56:15;;;;;;;;;15.50;15.50;;;;;19.03;39.80;99734.25;3721801;38;20391;-48
2022/04/07 09:58:46;;;;;;;;;20.00;20.00;;;;;18.86;40.05;99706.09;3721658;38;20499;-47
2022/04/07 10:01:21;;;;;;;;;20.00;20.00;;;;;19.14;38.94;99721.47;3721595;37;20411;-46
2022/04/07 10:14:17;;;;;;;;;22.75;19.75;;;;;19.41;36.66;99705.75;3721939;38;20441;-47
2022/04/07 10:22:11;;;;;;;;;16.75;15.00;;;;;18.89;36.50;99693.78;3721657;38;20437;-46
2022/04/07 10:24:48;;;;;;;;;16.50;15.50;;;;;18.87;36.55;99693.22;3721861;37;20538;-47
2022/04/07 10:27:22;;;;;;;;;15.50;14.75;;;;;18.67;37.11;99685.62;3721636;38;20416;-47
2022/04/07 10:30:02;;;;;;;;;16.25;15.00;;;;;18.84;36.17;99676.19;3721718;37;20416;-49
2022/04/07 10:43:25;;;;;;;;;15.25;15.00;;;;;19.14;35.34;99650.97;3721696;37;20340;-46
2022/04/07 10:46:00;;;;;;;;;13.25;13.25;;;;;19.25;35.42;99640.88;3721466;37;20455;-47
2022/04/07 10:48:32;;;;;;;;;11.75;11.75;;;;;19.54;35.29;99644.13;3721970;38;20473;-47
2022/04/07 10:51:05;;;;;;;;;11.00;11.00;;;;;19.44;35.56;99642.13;3721519;37;20370;-48
2022/04/07 10:53:39;;;;;;;;;13.25;13.00;;;;;19.49;35.51;99646.81;3721467;37;20444;-48
2022/04/07 11:01:34;;;;;;;;;13.25;11.50;;;;;19.39;34.77;99628.37;3721921;38;20351;-47
2022/04/07 11:04:04;;;;;;;;;10.00;9.25;;;;;19.56;34.62;99619.19;3721786;37;20359;-48
2022/04/07 11:06:38;;;;;;;;;14.75;13.25;;;;;19.51;33.68;99614.47;3721836;38;20376;-46
2022/04/07 11:09:12;;;;;;;;;9.25;9.25;;;;;19.38;32.97;99607.50;3721500;38;20342;-46
2022/04/07 11:11:51;;;;;;;;;11.50;10.75;;;;;19.49;32.59;99606.47;3721181;38;20391;-49
2022/04/07 11:22:36;;;;;;;;;11.50;11.00;;;;;19.07;32.75;99579.06;3721834;37;20383;-46
2022/04/07 11:25:09;;;;;;;;;15.75;15.75;;;;;19.20;32.99;99594.22;3721588;38;20311;-46
2022/04/07 11:27:39;;;;;;;;;9.75;9.75;;;;;19.03;32.77;99591.63;3721279;38;20747;-47
2022/04/07 11:30:14;;;;;;;;;8.75;8.75;;;;;18.91;32.19;99582.75;3721780;37;20305;-46
2022/04/07 11:36:34;;;;;;;;;8.25;8.25;;;;;19.09;31.88;99582.34;3721872;38;20454;-47
2022/04/07 11:39:04;;;;;;;;;10.75;9.75;;;;;18.86;31.51;99547.06;3721734;37;20255;-47
2022/04/07 11:49:12;;;;;;;;;13.25;13.00;;;;;18.70;30.53;99567.25;3721577;37;21435;-47
2022/04/07 11:51:42;;;;;;;;;10.50;10.25;;;;;18.59;30.59;99551.75;3720965;37;20325;-45
2022/04/07 11:54:16;;;;;;;;;14.75;14.00;;;;;18.40;31.01;99541.19;3721326;37;21418;-46
2022/04/07 11:56:44;;;;;;;;;10.00;10.00;;;;;18.38;31.09;99543.34;3721586;37;21401;-45
2022/04/07 11:59:12;;;;;;;;;9.00;8.75;;;;;18.37;31.13;99541.69;3721440;37;21284;-46
2022/04/07 12:09:11;;;;;;;;;14.00;14.00;;;;;18.61;31.09;99519.47;3721512;37;21373;-46
2022/04/07 12:11:43;;;;;;;;;24.00;23.75;;;;;18.63;31.44;99523.63;3721597;38;21306;-47
2022/04/07 12:14:15;;;;;;;;;21.00;21.00;;;;;18.80;31.93;99512.47;3721305;38;21190;-46
2022/04/07 12:19:17;;;;;;;;;16.50;15.25;;;;;19.11;32.86;99491.59;3721357;37;21552;-46
2022/04/07 12:24:35;;;;;;;;;12.00;11.25;;;;;19.80;32.61;99499.56;3721439;38;21322;-45
2022/04/07 12:27:08;;;;;;;;;7.75;7.75;;;;;19.86;32.92;99504.00;3721763;38;21273;-46
2022/04/07 12:29:35;;;;;;;;;8.00;8.00;;;;;19.93;33.11;99493.56;3720956;37;21306;-45
2022/04/07 12:40:35;;;;;;;;;9.25;9.00;;;;;19.83;34.17;99472.41;3721436;38;21274;-45
2022/04/07 12:45:28;;;;;;;;;9.75;8.00;;;;;19.90;34.24;99449.34;3721727;38;21486;-46
2022/04/07 12:55:55;;;;;;;;;7.50;7.50;;;;;19.69;34.85;99451.25;3721471;37;21333;-48
2022/04/07 12:58:28;;;;;;;;;8.25;7.00;;;;;19.77;34.02;99459.75;3721301;37;21140;-48
2022/04/07 13:01:02;;;;;;;;;9.25;9.25;;;;;19.76;33.77;99452.63;3721434;37;21187;-48
2022/04/07 13:03:29;;;;;;;;;7.75;7.75;;;;;19.76;33.83;99451.78;3721643;38;21184;-49
2022/04/07 13:06:02;;;;;;;;;4.00;4.00;;;;;19.58;33.38;99460.53;3720950;37;21125;-48
2022/04/07 13:08:29;;;;;;;;;8.00;8.00;;;;;19.46;33.42;99442.34;3720708;37;21160;-48
2022/04/07 13:13:29;;;;;;;;;9.75;9.50;;;;;19.14;33.62;99452.66;3721637;38;21184;-50
2022/04/07 13:16:00;;;;;;;;;9.00;8.25;;;;;19.07;33.63;99449.31;3721411;37;21431;-48
2022/04/07 13:18:28;;;;;;;;;9.50;8.75;;;;;18.91;33.74;99448.41;3721219;37;21178;-48
2022/04/07 13:20:58;;;;;;;;;11.75;11.75;;;;;18.63;34.46;99443.31;3721641;37;21492;-48
2022/04/07 13:23:25;;;;;;;;;19.50;17.00;;;;;18.48;34.77;99433.84;3720315;38;21231;-48
2022/04/07 13:25:53;;;;;;;;;12.00;11.75;;;;;18.57;35.19;99436.94;3720556;38;21068;-49
2022/04/07 13:30:58;;;;;;;;;11.75;11.00;;;;;18.37;36.45;99426.62;3721369;38;21225;-47
2022/04/07 13:41:11;;;;;;;;;8.50;8.50;;;;;18.07;38.38;99397.13;3721094;37;21230;-49
2022/04/07 13:48:52;;;;;;;;;4.25;4.25;;;;;17.84;39.06;99403.75;3721916;37;21141;-47
2022/04/07 13:51:19;;;;;;;;;9.75;8.00;;;;;17.86;39.27;99400.75;3721847;37;21200;-48
2022/04/07 13:53:50;;;;;;;;;15.75;15.75;;;;;17.73;39.86;99391.03;3721607;37;21133;-48
2022/04/07 13:58:54;;;;;;;;;11.00;11.00;;;;;17.54;40.98;99384.25;3720904;37;21114;-48
2022/04/07 14:01:29;;;;;;;;;5.75;5.50;;;;;17.54;40.82;99385.09;3721723;37;21169;-48
2022/04/07 14:06:30;;;;;;;;;13.50;13.50;;;;;17.42;41.33;99375.37;3721498;38;21168;-48
2022/04/07 14:09:01;;;;;;;;;24.75;24.00;;;;;17.29;41.82;99373.88;3720720;38;21057;-48
2022/04/07 14:11:32;;;;;;;;;31.75;30.50;;;;;17.19;42.52;99376.47;3720628;37;21240;-49
2022/04/07 14:16:29;;;;;;;;;37.75;33.25;;;;;17.16;42.79;99355.94;3721469;37;21149;-49
2022/04/07 14:21:31;;;;;;;;;32.50;30.50;;;;;17.05;42.89;99350.63;3721610;38;21138;-49
2022/04/07 14:26:25;;;;;;;;;28.25;27.00;;;;;16.94;43.43;99351.59;3721705;37;21048;-48
2022/04/07 14:31:27;;;;;;;;;19.50;19.50;;;;;16.99;43.68;99346.19;3721602;37;21344;-47
2022/04/07 14:33:58;;;;;;;;;14.75;14.00;;;;;16.98;43.58;99348.09;3720690;38;21160;-46
2022/04/07 14:36:36;;;;;;;;;10.00;9.25;;;;;16.65;47.35;99334.53;3721520;37;21105;-47
2022/04/07 14:39:10;;;;;;;;;12.50;12.50;;;;;16.60;49.74;99342.66;3721372;38;21167;-48
2022/04/07 14:49:17;;;;;;;;;12.75;12.75;;;;;16.49;53.71;99345.25;3721201;37;21033;-50
2022/04/07 14:51:53;;;;;;;;;17.25;16.25;;;;;16.47;54.13;99328.28;3721099;37;21100;-49
2022/04/07 14:54:27;;;;;;;;;14.25;14.25;;;;;16.49;53.93;99347.97;3720998;37;21233;-46
2022/04/07 14:59:35;;;;;;;;;15.25;15.25;;;;;16.33;47.18;99323.44;3721633;37;21024;-49
2022/04/07 15:02:12;;;;;;;;;16.25;16.25;;;;;16.34;47.15;99341.47;3721632;37;21060;-48
2022/04/07 15:04:43;;;;;;;;;18.50;18.00;;;;;16.33;47.03;99328.88;3720747;38;21244;-47
2022/04/07 15:09:49;;;;;;;;;15.50;13.75;;;;;16.01;48.19;99326.78;3721750;38;21197;-49
2022/04/07 15:12:20;;;;;;;;;10.25;10.25;;;;;15.96;48.63;99334.06;3721087;37;20919;-49
2022/04/07 15:14:54;;;;;;;;;14.00;12.75;;;;;15.95;48.98;99335.16;3721172;38;21152;-48
2022/04/07 15:17:24;;;;;;;;;16.50;16.25;;;;;15.96;48.89;99339.53;3721597;37;21015;-48
2022/04/07 15:25:03;;;;;;;;;12.00;11.75;;;;;15.88;49.99;99335.31;3721689;37;21065;-48
2022/04/07 15:27:33;;;;;;;;;19.50;17.50;;;;;15.79;51.07;99345.81;3721427;38;20987;-48
2022/04/07 15:32:31;;;;;;;;;13.75;13.75;;;;;15.59;54.25;99328.28;3721707;38;21046;-48
2022/04/07 15:34:59;;;;;;;;;13.50;13.00;;;;;15.62;55.43;99334.03;3721455;38;21204;-48
2022/04/07 15:52:57;;;;;;;;;10.00;8.75;;;;;14.90;74.21;99318.25;3721566;37;20903;-49
2022/04/07 15:55:32;;;;;;;;;9.50;9.00;;;;;14.84;75.58;99321.13;3721363;38;20997;-49
2022/04/07 16:00:33;;;;;;;;;8.25;8.25;;;;;14.68;77.57;99322.69;3721449;37;20841;-48
2022/04/07 16:03:04;;;;;;;;;11.25;10.75;;;;;14.71;77.76;99333.09;3721762;38;21068;-47
2022/04/07 16:05:32;;;;;;;;;7.00;6.00;;;;;14.64;78.24;99326.12;3721101;38;21003;-50
2022/04/07 16:08:02;;;;;;;;;9.00;8.75;;;;;14.61;77.52;99326.62;3721498;38;20956;-48
2022/04/07 16:10:33;;;;;;;;;4.00;4.00;;;;;14.50;78.52;99329.16;3720938;37;21029;-49
2022/04/07 16:13:00;;;;;;;;;8.00;8.00;;;;;14.46;78.01;99324.41;3721651;37;21151;-48
2022/04/07 16:15:27;;;;;;;;;6.75;6.50;;;;;14.40;78.28;99330.78;3721554;38;21128;-49
2022/04/07 16:17:55;;;;;;;;;7.75;6.25;;;;;14.15;80.62;99329.13;3721777;37;21145;-47
2022/04/07 16:20:22;;;;;;;;;4.25;3.75;;;;;14.04;80.62;99335.38;3720891;37;20777;-48
2022/04/07 16:25:27;;;;;;;;;7.50;7.25;;;;;13.71;82.05;99306.06;3721386;38;20978;-48
2022/04/07 16:28:02;;;;;;;;;7.25;7.00;;;;;13.63;82.75;99309.09;3721522;38;20906;-47
2022/04/07 16:30:34;;;;;;;;;4.25;4.00;;;;;13.64;83.19;99323.53;3721322;38;21227;-49
2022/04/07 16:33:11;;;;;;;;;9.75;7.25;;;;;13.63;83.15;99319.97;3721408;37;21140;-48
2022/04/07 16:35:38;;;;;;;;;7.75;7.00;;;;;13.48;85.26;99319.62;3721766;38;20987;-48
2022/04/07 16:38:06;;;;;;;;;4.50;4.50;;;;;13.43;85.87;99323.03;3721609;38;20846;-48
2022/04/07 16:43:17;;;;;;;;;6.75;6.50;;;;;13.18;86.04;99284.31;3721692;37;20879;-48
2022/04/07 16:45:51;;;;;;;;;5.25;5.25;;;;;13.26;86.62;99311.16;3721676;37;20866;-48
2022/04/07 16:48:18;;;;;;;;;5.25;5.25;;;;;13.15;86.85;99309.19;3721240;37;20876;-48
2022/04/07 16:53:19;;;;;;;;;7.00;6.75;;;;;12.99;87.94;99285.41;3720928;37;20812;-49
2022/04/07 16:55:53;;;;;;;;;7.25;5.50;;;;;12.83;88.46;99270.59;3720785;38;20802;-48
2022/04/07 16:58:26;;;;;;;;;7.00;6.00;;;;;12.93;88.86;99288.00;3721408;37;20844;-48
2022/04/07 17:00:57;;;;;;;;;6.00;6.00;;;;;12.88;88.96;99295.16;3721569;37;20884;-48
2022/04/07 17:03:29;;;;;;;;;8.75;5.50;;;;;12.85;89.39;99292.91;3721133;38;20834;-48
2022/04/07 17:06:06;;;;;;;;;5.00;5.00;;;;;12.83;89.16;99300.47;3721906;37;20884;-48
2022/04/07 17:08:39;;;;;;;;;5.25;5.25;;;;;12.75;90.39;99296.16;3721572;37;20814;-47
2022/04/07 17:11:17;;;;;;;;;8.00;7.00;;;;;12.65;91.55;99295.03;3721275;37;20769;-49
2022/04/07 17:13:48;;;;;;;;;10.00;10.00;;;;;12.54;92.62;99288.50;3721419;37;20811;-47
2022/04/07 17:16:16;;;;;;;;;7.75;7.00;;;;;12.47;93.33;99304.88;3721434;37;21134;-48
2022/04/07 17:18:44;;;;;;;;;6.50;5.25;;;;;12.43;93.94;99302.84;3721360;38;20755;-47
2022/04/07 17:21:12;;;;;;;;;8.25;7.25;;;;;12.39;94.94;99298.94;3721513;38;20799;-50
2022/04/07 17:26:15;;;;;;;;;8.00;7.25;;;;;12.11;99.24;99304.84;3721334;38;20809;-48
2022/04/07 17:28:43;;;;;;;;;6.75;6.50;;;;;12.07;100.00;99306.34;3720936;38;20996;-47
2022/04/07 17:31:12;;;;;;;;;6.25;6.00;;;;;12.00;100.00;99302.88;3721814;38;20782;-49
2022/04/07 17:36:14;;;;;;;;;6.00;6.00;;;;;11.85;100.00;99311.38;3720978;37;20763;-48
2022/04/07 17:38:49;;;;;;;;;7.25;6.75;;;;;11.75;100.00;99302.88;3721481;38;20801;-48
2022/04/07 17:41:20;;;;;;;;;7.50;7.50;;;;;11.65;100.00;99299.84;3722426;38;20943;-49
2022/04/07 17:43:55;;;;;;;;;7.00;7.00;;;;;11.64;100.00;99304.41;3721401;37;20787;-50
2022/04/07 17:46:26;;;;;;;;;3.75;3.75;;;;;11.39;100.00;99296.31;3722377;37;20801;-47
2022/04/07 17:51:32;;;;;;;;;8.00;7.25;;;;;11.47;100.00;99314.97;3721960;38;20988;-48
2022/04/07 17:54:04;;;;;;;;;7.75;7.00;;;;;11.45;100.00;99322.47;3721799;37;20725;-48
2022/04/07 17:56:42;;;;;;;;;8.50;7.75;;;;;11.45;100.00;99314.34;3721625;37;20769;-46
2022/04/07 17:59:09;;;;;;;;;7.50;7.50;;;;;11.22;100.00;99287.03;3720605;37;20726;-49
2022/04/07 18:01:37;;;;;;;;;9.75;8.50;;;;;11.34;100.00;99319.69;3721439;38;20716;-49
2022/04/07 18:04:08;;;;;;;;;9.00;7.75;;;;;11.28;100.00;99324.09;3721696;38;20781;-48
2022/04/07 18:09:12;;;;;;;;;9.25;8.25;;;;;11.08;100.00;99317.94;3721977;37;20788;-48
2022/04/07 18:11:43;;;;;;;;;11.50;10.00;;;;;11.02;100.00;99326.94;3722384;38;20763;-47
2022/04/07 18:14:18;;;;;;;;;9.75;8.50;;;;;10.93;100.00;99327.19;3721432;38;20756;-47
2022/04/07 18:16:55;;;;;;;;;7.50;6.50;;;;;10.91;100.00;99323.91;3721683;38;20805;-49
2022/04/07 18:19:27;;;;;;;;;9.25;8.50;;;;;10.90;100.00;99322.22;3722050;38;20677;-48
2022/04/07 18:24:24;;;;;;;;;14.00;10.75;;;;;10.83;100.00;99337.69;3721630;38;20720;-46
2022/04/07 18:26:58;;;;;;;;;8.50;7.50;;;;;10.52;100.00;99311.34;3721156;38;20774;-45
2022/04/07 18:34:27;;;;;;;;;6.50;6.50;;;;;10.45;100.00;99331.34;3721397;38;20768;-47
2022/04/07 18:37:01;;;;;;;;;6.50;5.00;;;;;10.37;100.00;99337.00;3721512;37;20708;-48
2022/04/07 18:42:06;;;;;;;;;8.00;8.00;;;;;10.10;100.00;99339.72;3720644;37;20864;-47
2022/04/07 18:44:34;;;;;;;;;7.00;6.75;;;;;10.01;100.00;99341.00;3721547;37;20669;-46
2022/04/07 18:47:01;;;;;;;;;8.25;6.75;;;;;9.95;100.00;99342.66;3721404;38;20880;-48
2022/04/07 18:57:11;;;;;;;;;9.75;8.25;;;;;9.81;100.00;99345.59;3721521;37;20680;-48
2022/04/07 18:59:38;;;;;;;;;9.50;7.25;;;;;9.75;100.00;99338.31;3721421;37;20827;-48
2022/04/07 19:02:12;;;;;;;;;10.25;9.75;;;;;9.73;100.00;99338.53;3720881;37;20707;-47